createdAt,value
2023-03-15T06:03:10.560Z,615.00
2023-03-15T06:04:11.572Z,616.00
2023-03-15T06:05:11.525Z,617.00
2023-03-15T06:06:11.554Z,614.00
2023-03-15T06:07:11.588Z,613.00
2023-03-15T06:09:11.655Z,616.00
2023-03-15T06:10:11.639Z,616.00
2023-03-15T06:11:11.649Z,615.00
2023-03-15T06:12:11.738Z,615.00
2023-03-15T06:15:11.881Z,617.00
2023-03-15T06:16:12.043Z,617.00
2023-03-15T06:17:11.955Z,616.00
2023-03-15T06:18:12.003Z,615.00
2023-03-15T06:19:12.103Z,613.00
2023-03-15T06:20:12.076Z,614.00
2023-03-15T06:21:12.121Z,615.00
2023-03-15T06:22:12.144Z,616.00
2023-03-15T06:23:12.192Z,617.00
2023-03-15T06:24:12.202Z,618.00
2023-03-15T06:26:11.288Z,618.00
2023-03-15T06:27:12.304Z,615.00
2023-03-15T06:28:12.375Z,614.00
2023-03-15T06:29:12.384Z,612.00
2023-03-15T06:31:11.473Z,614.00
2023-03-15T06:32:12.494Z,615.00
2023-03-15T06:34:12.537Z,614.00
2023-03-15T06:35:12.597Z,615.00
2023-03-15T06:36:12.613Z,613.00
2023-03-15T06:37:13.541Z,612.00
2023-03-15T06:38:12.648Z,612.00
2023-03-15T06:39:12.634Z,612.00
2023-03-15T06:40:12.637Z,612.00
2023-03-15T06:41:12.619Z,614.00
2023-03-15T06:42:12.610Z,615.00
2023-03-15T06:43:11.605Z,615.00
2023-03-15T06:44:12.600Z,616.00
2023-03-15T06:45:12.599Z,616.00
2023-03-15T06:46:12.630Z,616.00
2023-03-15T06:47:12.589Z,613.00
2023-03-15T06:48:11.575Z,611.00
2023-03-15T06:49:12.575Z,610.00
2023-03-15T06:50:12.558Z,608.00
2023-03-15T06:51:12.578Z,607.00
2023-03-15T06:52:12.576Z,607.00
2023-03-15T06:53:12.547Z,610.00
2023-03-15T06:54:12.558Z,610.00
2023-03-15T06:55:12.578Z,613.00
2023-03-15T06:56:11.579Z,614.00
2023-03-15T06:57:12.536Z,613.00
2023-03-15T06:58:12.539Z,610.00
2023-03-15T06:59:12.511Z,609.00
2023-03-15T07:00:12.519Z,611.00
2023-03-15T07:01:11.533Z,613.00
2023-03-15T07:02:12.522Z,611.00
2023-03-15T07:03:12.493Z,609.00
2023-03-15T07:04:12.547Z,609.00
2023-03-15T07:05:12.488Z,609.00
2023-03-15T07:06:12.506Z,610.00
2023-03-15T07:07:12.503Z,609.00
2023-03-15T07:08:12.474Z,608.00
2023-03-15T07:09:11.514Z,608.00
2023-03-15T07:10:12.457Z,606.00
2023-03-15T07:11:11.511Z,609.00
2023-03-15T07:12:12.449Z,611.00
2023-03-15T07:13:11.448Z,611.00
2023-03-15T07:14:12.424Z,612.00
2023-03-15T07:15:11.409Z,615.00
2023-03-15T07:16:12.462Z,618.00
2023-03-15T07:17:12.404Z,620.00
2023-03-15T07:18:11.410Z,625.00
2023-03-15T07:19:12.405Z,626.00
2023-03-15T07:20:11.380Z,626.00
2023-03-15T07:21:11.391Z,629.00
2023-03-15T07:22:11.415Z,629.00
2023-03-15T07:23:12.475Z,635.00
2023-03-15T07:24:12.473Z,641.00
2023-03-15T07:25:12.507Z,643.00
2023-03-15T07:26:12.541Z,644.00
2023-03-15T07:27:14.877Z,651.00
2023-03-15T07:28:12.578Z,654.00
2023-03-15T07:29:11.558Z,659.00
2023-03-15T07:30:12.535Z,666.00
2023-03-15T07:32:12.566Z,672.00
2023-03-15T07:33:12.573Z,675.00
2023-03-15T07:34:12.520Z,680.00
2023-03-15T07:35:13.540Z,684.00
2023-03-15T07:45:12.447Z,723.00
2023-03-15T07:49:12.405Z,744.00
2023-03-15T07:50:13.196Z,749.00
2023-03-15T07:51:12.411Z,754.00
2023-03-15T07:52:12.402Z,760.00
2023-03-15T07:53:12.380Z,764.00
2023-03-15T07:54:11.710Z,766.00
2023-03-15T07:55:11.405Z,773.00
2023-03-15T07:56:12.388Z,781.00
2023-03-15T07:57:12.366Z,787.00
2023-03-15T07:58:11.365Z,795.00
2023-03-15T07:59:12.757Z,804.00
2023-03-15T08:00:12.367Z,813.00
2023-03-15T08:01:12.352Z,819.00
2023-03-15T08:02:12.401Z,831.00
2023-03-15T08:03:12.400Z,837.00
2023-03-15T08:09:12.331Z,878.00
2023-03-15T08:15:11.244Z,921.00
2023-03-15T08:16:12.276Z,922.00
2023-03-15T08:17:12.240Z,928.00
2023-03-15T08:18:12.227Z,936.00
2023-03-15T08:21:12.221Z,965.00
2023-03-15T08:28:11.186Z,996.00
2023-03-15T08:29:12.157Z,1003.00
2023-03-15T08:30:12.168Z,1009.00
2023-03-15T08:31:12.185Z,1016.00
2023-03-15T08:32:12.133Z,1020.00
2023-03-15T08:33:11.140Z,1028.00
2023-03-15T08:34:12.247Z,1033.00
2023-03-15T08:35:14.282Z,1037.00
2023-03-15T08:36:11.173Z,1042.00
2023-03-15T08:37:12.119Z,1043.00
2023-03-15T08:38:12.106Z,1043.00
2023-03-15T08:39:12.100Z,1046.00
2023-03-15T08:42:11.076Z,1096.00
2023-03-15T08:43:11.109Z,1105.00
2023-03-15T08:44:11.069Z,1090.00
2023-03-15T08:45:12.066Z,1097.00
2023-03-15T08:46:12.079Z,1096.00
2023-03-15T08:47:12.059Z,1096.00
2023-03-15T08:48:12.045Z,1093.00
2023-03-15T08:50:12.251Z,1088.00
2023-03-15T08:51:12.023Z,1339.00
2023-03-15T08:52:12.007Z,1221.00
2023-03-15T08:53:12.009Z,1125.00
2023-03-15T08:54:11.988Z,1161.00
2023-03-15T08:56:11.995Z,1148.00
2023-03-15T08:57:12.003Z,1111.00
2023-03-15T08:58:11.975Z,1140.00
2023-03-15T08:59:19.225Z,1145.00
2023-03-15T09:00:11.969Z,1148.00
2023-03-15T09:01:11.950Z,1149.00
2023-03-15T09:02:11.010Z,1148.00
2023-03-15T09:03:11.957Z,1144.00
2023-03-15T09:04:11.988Z,1140.00
2023-03-15T09:05:11.949Z,1139.00
2023-03-15T09:06:10.941Z,1123.00
2023-03-15T09:07:10.916Z,1119.00
2023-03-15T09:08:10.892Z,1121.00
2023-03-15T09:09:11.895Z,1122.00
2023-03-15T09:10:11.905Z,1146.00
2023-03-15T09:11:10.888Z,1141.00
2023-03-15T09:12:10.898Z,1077.00
2023-03-15T09:13:11.873Z,1076.00
2023-03-15T09:14:11.870Z,1104.00
2023-03-15T09:15:11.973Z,1094.00
2023-03-15T09:16:10.855Z,1088.00
2023-03-15T09:17:12.273Z,1079.00
2023-03-15T09:18:11.841Z,1069.00
2023-03-15T09:19:11.837Z,1073.00
2023-03-15T09:20:11.819Z,1072.00
2023-03-15T09:21:11.815Z,1067.00
2023-03-15T09:22:17.127Z,1057.00
2023-03-15T09:23:11.810Z,1053.00
2023-03-15T09:24:11.806Z,1044.00
2023-03-15T09:25:11.795Z,1031.00
2023-03-15T09:26:10.786Z,1016.00
2023-03-15T09:27:11.792Z,1001.00
2023-03-15T09:28:10.807Z,985.00
2023-03-15T09:29:11.771Z,974.00
2023-03-15T09:30:11.777Z,969.00
2023-03-15T09:31:11.835Z,961.00
2023-03-15T09:32:11.745Z,955.00
2023-03-15T09:33:10.769Z,947.00
2023-03-15T09:34:10.734Z,936.00
2023-03-15T09:35:11.744Z,926.00
2023-03-15T09:36:11.730Z,909.00
2023-03-15T09:37:10.718Z,895.00
2023-03-15T09:38:11.713Z,875.00
2023-03-15T09:39:11.705Z,866.00
2023-03-15T09:40:11.703Z,858.00
2023-03-15T09:41:11.706Z,855.00
2023-03-15T09:42:11.687Z,847.00
2023-03-15T09:43:11.696Z,834.00
2023-03-15T09:44:11.689Z,825.00
2023-03-15T09:45:10.764Z,815.00
2023-03-15T09:46:11.727Z,807.00
2023-03-15T09:47:11.676Z,801.00
2023-03-15T09:48:11.663Z,792.00
2023-03-15T09:49:11.643Z,782.00
2023-03-15T09:50:11.653Z,771.00
2023-03-15T09:51:11.625Z,763.00
2023-03-15T09:52:10.613Z,752.00
2023-03-15T09:53:10.629Z,742.00
2023-03-15T09:54:10.596Z,739.00
2023-03-15T09:55:11.622Z,732.00
2023-03-15T09:56:11.592Z,729.00
2023-03-15T09:57:11.607Z,719.00
2023-03-15T09:58:11.644Z,714.00
2023-03-15T09:59:11.577Z,706.00
2023-03-15T10:00:11.567Z,700.00
2023-03-15T10:01:10.619Z,696.00
2023-03-15T10:02:10.556Z,689.00
2023-03-15T10:03:10.578Z,686.00
2023-03-15T10:04:10.532Z,679.00
2023-03-15T10:05:11.527Z,666.00
2023-03-15T10:06:10.534Z,660.00
2023-03-15T10:07:11.526Z,656.00
2023-03-15T10:08:11.534Z,649.00
2023-03-15T10:09:11.508Z,647.00
2023-03-15T10:10:11.501Z,642.00
2023-03-15T10:11:11.484Z,637.00
2023-03-15T10:12:11.523Z,631.00
2023-03-15T10:13:11.486Z,627.00
2023-03-15T10:14:11.485Z,624.00
2023-03-15T10:15:11.494Z,620.00
2023-03-15T10:16:11.563Z,617.00
2023-03-15T10:17:11.441Z,613.00
2023-03-15T10:18:10.519Z,612.00
2023-03-15T10:19:11.527Z,661.00
2023-03-15T10:20:11.561Z,680.00
2023-03-15T10:21:11.618Z,695.00
2023-03-15T10:22:11.607Z,746.00
2023-03-15T10:23:11.641Z,754.00
2023-03-15T10:24:10.662Z,799.00
2023-03-15T10:25:11.706Z,830.00
2023-03-15T10:26:13.211Z,840.00
2023-03-15T10:27:11.691Z,843.00
2023-03-15T10:28:11.679Z,859.00
2023-03-15T10:29:10.684Z,856.00
2023-03-15T10:30:11.687Z,948.00
2023-03-15T10:31:13.845Z,912.00
2023-03-15T10:32:11.675Z,953.00
2023-03-15T10:33:11.661Z,928.00
2023-03-15T10:34:11.723Z,936.00
2023-03-15T10:35:11.674Z,932.00
2023-03-15T10:36:11.850Z,977.00
2023-03-15T10:37:11.602Z,962.00
2023-03-15T10:38:11.596Z,975.00
2023-03-15T10:39:12.302Z,1014.00
2023-03-15T10:40:11.613Z,1026.00
2023-03-15T10:41:11.591Z,1072.00
2023-03-15T10:42:10.773Z,1076.00
2023-03-15T10:43:11.794Z,1075.00
2023-03-15T10:44:11.817Z,1073.00
2023-03-15T10:45:11.840Z,922.00
2023-03-15T10:46:11.967Z,800.00
2023-03-15T10:47:22.662Z,754.00
2023-03-15T10:48:11.898Z,750.00
2023-03-15T10:49:11.894Z,707.00
2023-03-15T10:50:10.892Z,677.00
2023-03-15T10:51:12.642Z,888.00
2023-03-15T10:52:11.874Z,828.00
2023-03-15T10:53:10.874Z,799.00
2023-03-15T10:54:11.883Z,769.00
2023-03-15T10:55:11.885Z,756.00
2023-03-15T10:56:11.906Z,745.00
2023-03-15T10:57:11.845Z,735.00
2023-03-15T10:58:10.847Z,734.00
2023-03-15T10:59:13.006Z,673.00
2023-03-15T11:00:11.827Z,662.00
2023-03-15T11:01:11.813Z,656.00
2023-03-15T11:02:11.821Z,649.00
2023-03-15T11:03:10.894Z,649.00
2023-03-15T11:04:11.891Z,571.00
2023-03-15T11:05:11.887Z,580.00
2023-03-15T11:06:11.899Z,583.00
2023-03-15T11:07:11.933Z,635.00
2023-03-15T11:08:11.896Z,652.00
2023-03-15T11:09:11.901Z,616.00
2023-03-15T11:10:11.891Z,577.00
2023-03-15T11:11:11.910Z,578.00
2023-03-15T11:12:11.923Z,584.00
2023-03-15T11:13:11.919Z,590.00
2023-03-15T11:14:10.923Z,584.00
2023-03-15T11:15:11.925Z,584.00
2023-03-15T11:16:11.978Z,577.00
2023-03-15T11:17:11.916Z,572.00
2023-03-15T11:18:12.101Z,563.00
2023-03-15T11:19:12.002Z,549.00
2023-03-15T11:20:10.925Z,539.00
2023-03-15T11:21:11.949Z,524.00
2023-03-15T11:22:11.961Z,522.00
2023-03-15T11:23:12.018Z,520.00
2023-03-15T11:24:12.022Z,515.00
2023-03-15T11:25:12.033Z,510.00
2023-03-15T11:26:14.095Z,515.00
2023-03-15T11:27:12.070Z,500.00
2023-03-15T11:28:12.057Z,510.00
2023-03-15T11:29:12.052Z,502.00
2023-03-15T11:30:11.035Z,509.00
2023-03-15T11:31:12.070Z,513.00
2023-03-15T11:32:11.026Z,511.00
2023-03-15T11:33:12.025Z,549.00
2023-03-15T11:34:11.037Z,524.00
2023-03-15T11:35:12.077Z,510.00
2023-03-15T11:36:12.390Z,510.00
2023-03-15T11:37:13.242Z,510.00
2023-03-15T11:38:15.254Z,518.00
2023-03-15T11:39:12.260Z,537.00
2023-03-15T11:40:14.076Z,545.00
2023-03-15T11:41:12.201Z,613.00
2023-03-15T11:42:12.192Z,678.00
2023-03-15T11:43:12.182Z,649.00
2023-03-15T11:44:12.166Z,595.00
2023-03-15T11:45:11.159Z,595.00
2023-03-15T11:46:12.359Z,588.00
2023-03-15T11:47:12.151Z,556.00
2023-03-15T11:48:12.130Z,550.00
2023-03-15T11:49:11.140Z,543.00
2023-03-15T11:50:12.142Z,542.00
2023-03-15T11:51:12.142Z,571.00
2023-03-15T11:52:12.106Z,570.00
2023-03-15T11:53:12.101Z,566.00
2023-03-15T11:54:11.091Z,540.00
2023-03-15T11:55:12.124Z,531.00
2023-03-15T11:56:12.088Z,535.00
2023-03-15T11:57:12.074Z,524.00
2023-03-15T11:58:12.089Z,493.00
2023-03-15T11:59:12.065Z,492.00
2023-03-15T12:00:12.136Z,495.00
2023-03-15T12:01:12.048Z,503.00
2023-03-15T12:02:11.350Z,503.00
2023-03-15T12:03:11.045Z,511.00
2023-03-15T12:04:12.788Z,513.00
2023-03-15T12:05:17.850Z,519.00
2023-03-15T12:06:12.029Z,517.00
2023-03-15T12:07:12.008Z,520.00
2023-03-15T12:08:12.013Z,512.00
2023-03-15T12:09:11.993Z,502.00
2023-03-15T12:10:11.983Z,490.00
2023-03-15T12:11:12.020Z,496.00
2023-03-15T12:12:11.974Z,503.00
2023-03-15T12:13:11.989Z,505.00
2023-03-15T12:14:11.974Z,511.00
2023-03-15T12:15:12.009Z,519.00
2023-03-15T12:16:12.111Z,531.00
2023-03-15T12:17:11.959Z,536.00
2023-03-15T12:18:11.942Z,536.00
2023-03-15T12:19:11.933Z,485.00
2023-03-15T12:20:11.921Z,482.00
2023-03-15T12:21:11.926Z,480.00
2023-03-15T12:22:11.923Z,481.00
2023-03-15T12:23:10.894Z,485.00
2023-03-15T12:24:11.897Z,486.00
2023-03-15T12:25:11.884Z,487.00
2023-03-15T12:26:10.901Z,458.00
2023-03-15T12:27:11.976Z,475.00
2023-03-15T12:28:11.884Z,473.00
2023-03-15T12:30:12.099Z,490.00
2023-03-15T12:31:11.942Z,535.00
2023-03-15T12:32:11.851Z,541.00
2023-03-15T12:33:11.827Z,524.00
2023-03-15T12:34:11.828Z,535.00
2023-03-15T12:35:13.361Z,618.00
2023-03-15T12:36:11.903Z,563.00
2023-03-15T12:37:11.807Z,557.00
2023-03-15T12:38:10.809Z,559.00
2023-03-15T12:39:11.785Z,562.00
2023-03-15T12:40:11.780Z,558.00
2023-03-15T12:41:11.781Z,558.00
2023-03-15T12:42:11.772Z,617.00
2023-03-15T12:43:11.799Z,612.00
2023-03-15T12:44:11.760Z,614.00
2023-03-15T12:45:11.792Z,619.00
2023-03-15T12:46:10.815Z,629.00
2023-03-15T12:47:11.732Z,639.00
2023-03-15T12:48:11.726Z,645.00
2023-03-15T12:49:11.732Z,653.00
2023-03-15T12:50:11.719Z,660.00
2023-03-15T12:51:11.722Z,667.00
2023-03-15T12:52:11.728Z,673.00
2023-03-15T12:53:11.701Z,680.00
2023-03-15T12:54:11.687Z,681.00
2023-03-15T12:55:11.678Z,683.00
2023-03-15T12:56:11.704Z,686.00
2023-03-15T12:57:11.690Z,690.00
2023-03-15T12:58:11.657Z,695.00
2023-03-15T12:59:10.695Z,696.00
2023-03-15T13:00:11.647Z,697.00
2023-03-15T13:01:11.743Z,699.00
2023-03-15T13:02:11.757Z,699.00
2023-03-15T13:03:11.867Z,701.00
2023-03-15T13:04:11.867Z,702.00
2023-03-15T13:05:11.924Z,701.00
2023-03-15T13:06:11.341Z,702.00
2023-03-15T13:07:12.031Z,706.00
2023-03-15T13:08:12.079Z,711.00
2023-03-15T13:09:12.132Z,718.00
2023-03-15T13:10:11.336Z,722.00
2023-03-15T13:11:11.236Z,727.00
2023-03-15T13:12:12.270Z,733.00
2023-03-15T13:13:12.348Z,738.00
2023-03-15T13:14:11.356Z,742.00
2023-03-15T13:15:12.411Z,743.00
2023-03-15T13:16:12.495Z,743.00
2023-03-15T13:17:11.457Z,746.00
2023-03-15T13:18:12.488Z,747.00
2023-03-15T13:19:12.512Z,747.00
2023-03-15T13:20:12.600Z,747.00
2023-03-15T13:21:12.622Z,748.00
2023-03-15T13:22:11.621Z,749.00
2023-03-15T13:23:11.660Z,750.00
2023-03-15T13:24:12.702Z,750.00
2023-03-15T13:25:11.735Z,755.00
2023-03-15T13:26:12.774Z,761.00
2023-03-15T13:27:12.822Z,762.00
2023-03-15T13:28:11.860Z,764.00
2023-03-15T13:29:11.964Z,764.00
2023-03-15T13:30:12.925Z,763.00
2023-03-15T13:31:13.060Z,758.00
2023-03-15T13:32:13.019Z,756.00
2023-03-15T13:33:12.029Z,754.00
2023-03-15T13:34:13.086Z,752.00
2023-03-15T13:35:13.111Z,754.00
2023-03-15T13:36:13.117Z,754.00
2023-03-15T13:37:13.143Z,753.00
2023-03-15T13:38:13.178Z,756.00
2023-03-15T13:39:13.216Z,759.00
2023-03-15T13:40:13.277Z,755.00
2023-03-15T13:41:13.274Z,756.00
2023-03-15T13:42:13.314Z,756.00
2023-03-15T13:43:13.328Z,758.00
2023-03-15T13:44:13.349Z,757.00
2023-03-15T13:45:12.406Z,755.00
2023-03-15T13:46:13.428Z,754.00
2023-03-15T13:47:13.466Z,756.00
2023-03-15T13:48:13.504Z,755.00
2023-03-15T13:49:13.607Z,757.00
2023-03-15T13:50:13.533Z,758.00
2023-03-15T13:51:13.553Z,758.00
2023-03-15T13:52:13.571Z,757.00
2023-03-15T13:53:12.596Z,759.00
2023-03-15T13:54:12.649Z,761.00
2023-03-15T13:55:13.660Z,759.00
2023-03-15T13:56:13.695Z,757.00
2023-03-15T13:57:13.719Z,756.00
2023-03-15T13:58:13.724Z,762.00
2023-03-15T13:59:13.756Z,766.00
2023-03-15T14:00:13.775Z,766.00
2023-03-15T14:01:13.790Z,767.00
2023-03-15T14:02:12.886Z,764.00
2023-03-15T14:03:13.943Z,766.00
2023-03-15T14:04:13.868Z,769.00
2023-03-15T14:05:13.898Z,771.00
2023-03-15T14:06:13.938Z,771.00
2023-03-15T14:07:13.964Z,767.00
2023-03-15T14:08:13.977Z,768.00
2023-03-15T14:09:14.005Z,766.00
2023-03-15T14:10:14.039Z,766.00
2023-03-15T14:11:13.069Z,765.00
2023-03-15T14:12:14.091Z,764.00
2023-03-15T14:13:13.132Z,765.00
2023-03-15T14:14:14.141Z,763.00
2023-03-15T14:15:14.166Z,764.00
2023-03-15T14:16:14.274Z,763.00
2023-03-15T14:17:14.304Z,763.00
2023-03-15T14:18:14.253Z,760.00
2023-03-15T14:19:14.313Z,761.00
2023-03-15T14:20:14.307Z,761.00
2023-03-15T14:21:14.339Z,760.00
2023-03-15T14:22:14.357Z,764.00
2023-03-15T14:23:14.380Z,763.00
2023-03-15T14:24:14.397Z,764.00
2023-03-15T14:25:13.414Z,764.00
2023-03-15T14:26:13.441Z,766.00
2023-03-15T14:27:14.472Z,764.00
2023-03-15T14:28:13.506Z,759.00
2023-03-15T14:29:14.518Z,759.00
2023-03-15T14:30:14.549Z,756.00
2023-03-15T14:31:14.595Z,755.00
2023-03-15T14:32:13.590Z,756.00
2023-03-15T14:33:14.611Z,753.00
2023-03-15T14:34:14.639Z,756.00
2023-03-15T14:35:13.697Z,756.00
2023-03-15T14:36:13.707Z,758.00
2023-03-15T14:37:14.732Z,759.00
2023-03-15T14:38:14.751Z,762.00
2023-03-15T14:39:14.790Z,761.00
2023-03-15T14:40:15.366Z,759.00
2023-03-15T14:41:14.820Z,756.00
2023-03-15T14:42:13.843Z,755.00
2023-03-15T14:43:14.865Z,755.00
2023-03-15T14:44:13.922Z,755.00
2023-03-15T14:45:14.920Z,750.00
2023-03-15T14:46:14.980Z,750.00
2023-03-15T14:47:14.965Z,747.00
2023-03-15T14:48:14.992Z,744.00
2023-03-15T14:49:15.002Z,744.00
2023-03-15T14:50:15.091Z,744.00
2023-03-15T14:51:15.083Z,744.00
2023-03-15T14:52:15.087Z,744.00
2023-03-15T14:53:15.105Z,741.00
2023-03-15T14:54:15.142Z,739.00
2023-03-15T14:55:14.179Z,737.00
2023-03-15T14:56:15.206Z,737.00
2023-03-15T14:57:15.886Z,738.00
2023-03-15T14:58:15.233Z,736.00
2023-03-15T14:59:14.257Z,737.00
2023-03-15T15:00:15.290Z,737.00
2023-03-15T15:01:14.445Z,737.00
2023-03-15T15:02:15.425Z,734.00
2023-03-15T15:03:15.364Z,732.00
2023-03-15T15:04:15.410Z,729.00
2023-03-15T15:05:14.430Z,727.00
2023-03-15T15:06:15.449Z,727.00
2023-03-15T15:07:15.521Z,729.00
2023-03-15T15:08:15.525Z,731.00
2023-03-15T15:09:15.760Z,732.00
2023-03-15T15:10:15.552Z,734.00
2023-03-15T15:11:15.607Z,735.00
2023-03-15T15:12:15.620Z,732.00
2023-03-15T15:13:15.644Z,729.00
2023-03-15T15:14:15.679Z,729.00
2023-03-15T15:15:15.712Z,728.00
2023-03-15T15:16:15.750Z,727.00
2023-03-15T15:17:15.766Z,726.00
2023-03-15T15:18:15.785Z,724.00
2023-03-15T15:19:15.813Z,724.00
2023-03-15T15:20:15.842Z,722.00
2023-03-15T15:21:15.886Z,720.00
2023-03-15T15:22:15.902Z,721.00
2023-03-15T15:23:14.937Z,721.00
2023-03-15T15:24:15.942Z,716.00
2023-03-15T15:25:15.958Z,713.00
2023-03-15T15:26:15.001Z,711.00
2023-03-15T15:27:16.037Z,710.00
2023-03-15T15:28:32.803Z,707.00
2023-03-15T15:29:16.094Z,706.00
2023-03-15T15:30:16.368Z,708.00
2023-03-15T15:31:16.153Z,709.00
2023-03-15T15:32:16.027Z,708.00
2023-03-15T15:33:16.080Z,706.00
2023-03-15T15:34:16.026Z,705.00
2023-03-15T15:35:16.008Z,704.00
2023-03-15T15:36:16.006Z,703.00
2023-03-15T15:37:15.990Z,701.00
2023-03-15T15:38:15.985Z,701.00
2023-03-15T15:39:16.027Z,701.00
2023-03-15T15:40:15.987Z,699.00
2023-03-15T15:41:15.980Z,698.00
2023-03-15T15:42:15.969Z,700.00
2023-03-15T15:43:15.957Z,701.00
2023-03-15T15:44:15.957Z,702.00
2023-03-15T15:45:15.942Z,705.00
2023-03-15T15:46:16.041Z,703.00
2023-03-15T15:47:14.925Z,704.00
2023-03-15T15:48:15.913Z,705.00
2023-03-15T15:49:15.907Z,706.00
2023-03-15T15:50:15.921Z,706.00
2023-03-15T15:51:14.901Z,706.00
2023-03-15T15:52:15.894Z,709.00
2023-03-15T15:53:15.882Z,709.00
2023-03-15T15:54:15.893Z,710.00
2023-03-15T15:55:15.891Z,713.00
2023-03-15T15:56:15.912Z,714.00
2023-03-15T15:57:15.925Z,714.00
2023-03-15T15:58:15.946Z,710.00
2023-03-15T15:59:15.981Z,710.00
2023-03-15T16:00:16.012Z,707.00
2023-03-15T16:01:16.109Z,704.00
2023-03-15T16:02:15.330Z,703.00
2023-03-15T16:03:16.160Z,704.00
2023-03-15T16:04:16.135Z,706.00
2023-03-15T16:05:16.187Z,706.00
2023-03-15T16:06:15.198Z,704.00
2023-03-15T16:07:16.255Z,703.00
2023-03-15T16:08:16.259Z,703.00
2023-03-15T16:09:16.357Z,701.00
2023-03-15T16:10:15.332Z,699.00
2023-03-15T16:11:16.368Z,699.00
2023-03-15T16:12:16.402Z,699.00
2023-03-15T16:13:16.440Z,700.00
2023-03-15T16:14:16.448Z,698.00
2023-03-15T16:15:16.486Z,695.00
2023-03-15T16:16:16.602Z,695.00
2023-03-15T16:17:15.565Z,694.00
2023-03-15T16:18:15.612Z,690.00
2023-03-15T16:19:16.690Z,687.00
2023-03-15T16:20:16.691Z,687.00
2023-03-15T16:21:16.731Z,685.00
2023-03-15T16:22:16.771Z,683.00
2023-03-15T16:23:16.809Z,684.00
2023-03-15T16:24:16.834Z,686.00
2023-03-15T16:25:16.874Z,689.00
2023-03-15T16:26:16.934Z,687.00
2023-03-15T16:27:16.992Z,687.00
2023-03-15T16:28:17.012Z,689.00
2023-03-15T16:29:17.053Z,686.00
